sensor_id;sensor_type;location;lat;lon;timestamp;P1;durP1;ratioP1;P2;durP2;ratioP2
21168;SDS011;10742;51.816;8.662;2022-12-04T00:01:25;41.83;;;16.83;;
21168;SDS011;10742;51.816;8.662;2022-12-04T00:04:48;44.83;;;17.30;;
21168;SDS011;10742;51.816;8.662;2022-12-04T00:08:10;43.33;;;18.43;;
21168;SDS011;10742;51.816;8.662;2022-12-04T00:11:32;44.97;;;18.93;;
21168;SDS011;10742;51.816;8.662;2022-12-04T00:14:55;46.27;;;17.77;;
21168;SDS011;10742;51.816;8.662;2022-12-04T00:18:36;40.57;;;16.80;;
21168;SDS011;10742;51.816;8.662;2022-12-04T00:21:58;44.60;;;17.57;;
21168;SDS011;10742;51.816;8.662;2022-12-04T00:25:19;40.03;;;16.23;;
21168;SDS011;10742;51.816;8.662;2022-12-04T00:28:40;45.63;;;18.37;;
21168;SDS011;10742;51.816;8.662;2022-12-04T00:32:02;40.47;;;16.57;;
21168;SDS011;10742;51.816;8.662;2022-12-04T00:35:24;45.03;;;17.53;;
21168;SDS011;10742;51.816;8.662;2022-12-04T00:38:46;45.30;;;17.27;;
21168;SDS011;10742;51.816;8.662;2022-12-04T00:42:07;47.90;;;18.33;;
21168;SDS011;10742;51.816;8.662;2022-12-04T00:45:29;40.93;;;15.57;;
21168;SDS011;10742;51.816;8.662;2022-12-04T00:48:50;41.37;;;17.03;;
21168;SDS011;10742;51.816;8.662;2022-12-04T00:52:13;42.47;;;17.03;;
21168;SDS011;10742;51.816;8.662;2022-12-04T00:55:36;41.57;;;16.60;;
21168;SDS011;10742;51.816;8.662;2022-12-04T00:58:59;44.57;;;17.77;;
21168;SDS011;10742;51.816;8.662;2022-12-04T01:02:21;43.10;;;16.93;;
21168;SDS011;10742;51.816;8.662;2022-12-04T01:05:44;41.80;;;17.27;;
21168;SDS011;10742;51.816;8.662;2022-12-04T01:09:05;46.57;;;16.97;;
21168;SDS011;10742;51.816;8.662;2022-12-04T01:12:27;40.47;;;16.57;;
21168;SDS011;10742;51.816;8.662;2022-12-04T01:15:48;41.23;;;16.57;;
21168;SDS011;10742;51.816;8.662;2022-12-04T01:19:10;39.50;;;15.83;;
21168;SDS011;10742;51.816;8.662;2022-12-04T01:22:32;42.00;;;15.80;;
21168;SDS011;10742;51.816;8.662;2022-12-04T01:25:55;39.93;;;15.77;;
21168;SDS011;10742;51.816;8.662;2022-12-04T01:29:18;41.37;;;16.57;;
21168;SDS011;10742;51.816;8.662;2022-12-04T01:32:39;43.17;;;17.40;;
21168;SDS011;10742;51.816;8.662;2022-12-04T01:36:02;43.23;;;17.33;;
21168;SDS011;10742;51.816;8.662;2022-12-04T01:39:25;40.23;;;15.63;;
21168;SDS011;10742;51.816;8.662;2022-12-04T01:42:46;41.23;;;16.60;;
21168;SDS011;10742;51.816;8.662;2022-12-04T01:46:08;39.80;;;16.13;;
21168;SDS011;10742;51.816;8.662;2022-12-04T01:49:38;42.77;;;16.70;;
21168;SDS011;10742;51.816;8.662;2022-12-04T01:53:02;40.27;;;17.23;;
21168;SDS011;10742;51.816;8.662;2022-12-04T01:56:31;45.00;;;17.03;;
21168;SDS011;10742;51.816;8.662;2022-12-04T02:00:08;39.87;;;15.43;;
21168;SDS011;10742;51.816;8.662;2022-12-04T02:03:32;36.13;;;14.83;;
21168;SDS011;10742;51.816;8.662;2022-12-04T02:06:54;38.77;;;15.13;;
21168;SDS011;10742;51.816;8.662;2022-12-04T02:10:15;37.67;;;14.70;;
21168;SDS011;10742;51.816;8.662;2022-12-04T02:14:01;39.07;;;15.83;;
21168;SDS011;10742;51.816;8.662;2022-12-04T02:18:09;40.20;;;14.90;;
21168;SDS011;10742;51.816;8.662;2022-12-04T02:21:43;37.30;;;14.47;;
21168;SDS011;10742;51.816;8.662;2022-12-04T02:39:50;38.03;;;14.00;;
21168;SDS011;10742;51.816;8.662;2022-12-04T02:43:16;38.47;;;14.53;;
21168;SDS011;10742;51.816;8.662;2022-12-04T02:46:43;35.87;;;13.53;;
21168;SDS011;10742;51.816;8.662;2022-12-04T02:50:08;37.00;;;14.13;;
21168;SDS011;10742;51.816;8.662;2022-12-04T02:53:43;40.13;;;14.70;;
21168;SDS011;10742;51.816;8.662;2022-12-04T02:57:27;34.80;;;12.07;;
21168;SDS011;10742;51.816;8.662;2022-12-04T03:00:52;39.20;;;14.30;;
21168;SDS011;10742;51.816;8.662;2022-12-04T03:04:20;39.03;;;14.77;;
21168;SDS011;10742;51.816;8.662;2022-12-04T03:07:51;36.57;;;14.03;;
21168;SDS011;10742;51.816;8.662;2022-12-04T03:11:15;36.80;;;13.83;;
21168;SDS011;10742;51.816;8.662;2022-12-04T03:14:41;33.30;;;13.40;;
21168;SDS011;10742;51.816;8.662;2022-12-04T03:18:10;38.07;;;13.37;;
21168;SDS011;10742;51.816;8.662;2022-12-04T03:21:40;31.67;;;12.80;;
21168;SDS011;10742;51.816;8.662;2022-12-04T03:25:07;33.53;;;12.30;;
21168;SDS011;10742;51.816;8.662;2022-12-04T03:29:06;34.17;;;12.07;;
21168;SDS011;10742;51.816;8.662;2022-12-04T03:32:39;34.57;;;12.63;;
21168;SDS011;10742;51.816;8.662;2022-12-04T03:40:21;28.90;;;10.97;;
21168;SDS011;10742;51.816;8.662;2022-12-04T03:44:05;33.37;;;11.90;;
21168;SDS011;10742;51.816;8.662;2022-12-04T03:47:13;30.60;;;11.10;;
21168;SDS011;10742;51.816;8.662;2022-12-04T03:50:41;29.30;;;11.13;;
21168;SDS011;10742;51.816;8.662;2022-12-04T03:54:12;27.97;;;10.07;;
21168;SDS011;10742;51.816;8.662;2022-12-04T03:57:38;29.70;;;11.17;;
21168;SDS011;10742;51.816;8.662;2022-12-04T04:01:04;31.20;;;10.67;;
21168;SDS011;10742;51.816;8.662;2022-12-04T04:04:32;27.70;;;10.13;;
21168;SDS011;10742;51.816;8.662;2022-12-04T04:08:03;26.07;;;9.20;;
21168;SDS011;10742;51.816;8.662;2022-12-04T04:12:02;27.00;;;9.73;;
21168;SDS011;10742;51.816;8.662;2022-12-04T04:15:27;26.20;;;9.77;;
21168;SDS011;10742;51.816;8.662;2022-12-04T04:19:08;26.20;;;9.10;;
21168;SDS011;10742;51.816;8.662;2022-12-04T04:22:52;23.47;;;8.57;;
21168;SDS011;10742;51.816;8.662;2022-12-04T04:26:35;23.40;;;8.60;;
21168;SDS011;10742;51.816;8.662;2022-12-04T04:30:03;24.73;;;8.57;;
21168;SDS011;10742;51.816;8.662;2022-12-04T04:33:25;25.53;;;8.40;;
21168;SDS011;10742;51.816;8.662;2022-12-04T04:40:37;24.50;;;8.03;;
21168;SDS011;10742;51.816;8.662;2022-12-04T04:44:16;24.83;;;8.37;;
21168;SDS011;10742;51.816;8.662;2022-12-04T04:48:03;26.77;;;9.07;;
21168;SDS011;10742;51.816;8.662;2022-12-04T04:51:29;21.27;;;7.90;;
21168;SDS011;10742;51.816;8.662;2022-12-04T04:54:53;22.93;;;8.17;;
21168;SDS011;10742;51.816;8.662;2022-12-04T04:58:17;23.70;;;8.27;;
21168;SDS011;10742;51.816;8.662;2022-12-04T05:01:43;27.63;;;9.27;;
21168;SDS011;10742;51.816;8.662;2022-12-04T05:05:06;24.73;;;8.90;;
21168;SDS011;10742;51.816;8.662;2022-12-04T05:08:28;26.67;;;8.50;;
21168;SDS011;10742;51.816;8.662;2022-12-04T05:11:49;25.23;;;9.13;;
21168;SDS011;10742;51.816;8.662;2022-12-04T05:15:11;25.97;;;8.87;;
21168;SDS011;10742;51.816;8.662;2022-12-04T05:18:32;25.73;;;9.00;;
21168;SDS011;10742;51.816;8.662;2022-12-04T05:21:54;24.37;;;8.63;;
21168;SDS011;10742;51.816;8.662;2022-12-04T05:25:17;22.70;;;8.13;;
21168;SDS011;10742;51.816;8.662;2022-12-04T05:28:38;23.97;;;8.90;;
21168;SDS011;10742;51.816;8.662;2022-12-04T05:32:01;25.23;;;8.43;;
21168;SDS011;10742;51.816;8.662;2022-12-04T05:35:23;23.47;;;7.87;;
21168;SDS011;10742;51.816;8.662;2022-12-04T05:38:44;27.33;;;8.50;;
21168;SDS011;10742;51.816;8.662;2022-12-04T05:42:05;24.80;;;8.57;;
21168;SDS011;10742;51.816;8.662;2022-12-04T05:45:28;24.97;;;8.60;;
21168;SDS011;10742;51.816;8.662;2022-12-04T05:48:50;25.77;;;8.33;;
21168;SDS011;10742;51.816;8.662;2022-12-04T05:52:11;23.03;;;8.00;;
21168;SDS011;10742;51.816;8.662;2022-12-04T05:55:32;23.40;;;7.53;;
21168;SDS011;10742;51.816;8.662;2022-12-04T05:58:54;25.40;;;8.53;;
21168;SDS011;10742;51.816;8.662;2022-12-04T06:02:16;23.73;;;8.50;;
21168;SDS011;10742;51.816;8.662;2022-12-04T06:05:37;24.77;;;8.40;;
21168;SDS011;10742;51.816;8.662;2022-12-04T06:08:59;25.33;;;8.43;;
21168;SDS011;10742;51.816;8.662;2022-12-04T06:12:20;25.33;;;9.10;;
21168;SDS011;10742;51.816;8.662;2022-12-04T06:15:42;22.90;;;7.40;;
21168;SDS011;10742;51.816;8.662;2022-12-04T06:19:07;24.07;;;8.53;;
21168;SDS011;10742;51.816;8.662;2022-12-04T06:22:31;26.27;;;8.70;;
21168;SDS011;10742;51.816;8.662;2022-12-04T06:25:52;21.50;;;7.73;;
21168;SDS011;10742;51.816;8.662;2022-12-04T06:29:15;23.07;;;8.23;;
21168;SDS011;10742;51.816;8.662;2022-12-04T06:32:36;24.10;;;8.53;;
21168;SDS011;10742;51.816;8.662;2022-12-04T06:36:02;25.67;;;8.20;;
21168;SDS011;10742;51.816;8.662;2022-12-04T06:39:25;24.40;;;8.17;;
21168;SDS011;10742;51.816;8.662;2022-12-04T06:42:46;23.43;;;8.10;;
21168;SDS011;10742;51.816;8.662;2022-12-04T06:46:16;22.47;;;7.70;;
21168;SDS011;10742;51.816;8.662;2022-12-04T06:49:40;21.00;;;7.50;;
21168;SDS011;10742;51.816;8.662;2022-12-04T06:53:01;22.47;;;8.27;;
21168;SDS011;10742;51.816;8.662;2022-12-04T06:56:28;26.57;;;8.93;;
21168;SDS011;10742;51.816;8.662;2022-12-04T06:59:51;24.87;;;7.83;;
21168;SDS011;10742;51.816;8.662;2022-12-04T07:03:12;24.13;;;8.07;;
21168;SDS011;10742;51.816;8.662;2022-12-04T07:06:34;23.73;;;8.27;;
21168;SDS011;10742;51.816;8.662;2022-12-04T07:09:57;23.43;;;7.90;;
21168;SDS011;10742;51.816;8.662;2022-12-04T07:13:19;18.40;;;6.97;;
21168;SDS011;10742;51.816;8.662;2022-12-04T07:16:40;20.30;;;7.33;;
21168;SDS011;10742;51.816;8.662;2022-12-04T07:20:03;21.50;;;7.03;;
21168;SDS011;10742;51.816;8.662;2022-12-04T07:23:26;22.30;;;7.67;;
21168;SDS011;10742;51.816;8.662;2022-12-04T07:26:48;22.17;;;7.33;;
21168;SDS011;10742;51.816;8.662;2022-12-04T07:30:09;24.60;;;8.40;;
21168;SDS011;10742;51.816;8.662;2022-12-04T07:33:35;24.23;;;7.77;;
21168;SDS011;10742;51.816;8.662;2022-12-04T07:36:56;24.33;;;8.00;;
21168;SDS011;10742;51.816;8.662;2022-12-04T07:40:18;20.70;;;7.37;;
21168;SDS011;10742;51.816;8.662;2022-12-04T07:43:39;21.23;;;7.70;;
21168;SDS011;10742;51.816;8.662;2022-12-04T07:47:01;19.83;;;7.27;;
21168;SDS011;10742;51.816;8.662;2022-12-04T07:50:23;20.23;;;6.87;;
21168;SDS011;10742;51.816;8.662;2022-12-04T07:53:44;24.57;;;7.80;;
21168;SDS011;10742;51.816;8.662;2022-12-04T07:57:06;19.73;;;7.13;;
21168;SDS011;10742;51.816;8.662;2022-12-04T08:00:28;20.97;;;7.43;;
21168;SDS011;10742;51.816;8.662;2022-12-04T08:03:51;20.83;;;7.97;;
21168;SDS011;10742;51.816;8.662;2022-12-04T08:07:15;21.63;;;7.70;;
21168;SDS011;10742;51.816;8.662;2022-12-04T08:10:38;22.57;;;8.63;;
21168;SDS011;10742;51.816;8.662;2022-12-04T08:14:02;24.40;;;8.10;;
21168;SDS011;10742;51.816;8.662;2022-12-04T08:17:24;19.60;;;7.47;;
21168;SDS011;10742;51.816;8.662;2022-12-04T08:23:46;20.67;;;7.80;;
21168;SDS011;10742;51.816;8.662;2022-12-04T08:27:09;24.10;;;8.03;;
21168;SDS011;10742;51.816;8.662;2022-12-04T08:30:31;23.27;;;7.43;;
21168;SDS011;10742;51.816;8.662;2022-12-04T08:33:53;23.50;;;8.00;;
21168;SDS011;10742;51.816;8.662;2022-12-04T08:37:16;21.87;;;7.90;;
21168;SDS011;10742;51.816;8.662;2022-12-04T08:40:37;23.40;;;8.37;;
21168;SDS011;10742;51.816;8.662;2022-12-04T08:43:59;20.73;;;7.47;;
21168;SDS011;10742;51.816;8.662;2022-12-04T08:47:21;22.57;;;8.13;;
21168;SDS011;10742;51.816;8.662;2022-12-04T08:50:45;21.23;;;7.30;;
21168;SDS011;10742;51.816;8.662;2022-12-04T08:54:10;20.73;;;8.23;;
21168;SDS011;10742;51.816;8.662;2022-12-04T08:57:32;21.93;;;7.83;;
21168;SDS011;10742;51.816;8.662;2022-12-04T09:00:54;21.90;;;7.63;;
21168;SDS011;10742;51.816;8.662;2022-12-04T09:04:16;23.07;;;7.87;;
21168;SDS011;10742;51.816;8.662;2022-12-04T09:07:38;20.17;;;7.63;;
21168;SDS011;10742;51.816;8.662;2022-12-04T09:11:06;19.60;;;7.73;;
21168;SDS011;10742;51.816;8.662;2022-12-04T09:14:30;21.37;;;7.63;;
21168;SDS011;10742;51.816;8.662;2022-12-04T09:17:51;24.70;;;7.33;;
21168;SDS011;10742;51.816;8.662;2022-12-04T09:21:13;21.03;;;7.47;;
21168;SDS011;10742;51.816;8.662;2022-12-04T09:24:37;21.30;;;7.70;;
21168;SDS011;10742;51.816;8.662;2022-12-04T09:27:59;19.83;;;7.63;;
21168;SDS011;10742;51.816;8.662;2022-12-04T09:31:20;24.93;;;8.70;;
21168;SDS011;10742;51.816;8.662;2022-12-04T09:34:43;21.10;;;8.00;;
21168;SDS011;10742;51.816;8.662;2022-12-04T09:38:08;24.17;;;8.07;;
21168;SDS011;10742;51.816;8.662;2022-12-04T09:45:21;24.67;;;9.20;;
21168;SDS011;10742;51.816;8.662;2022-12-04T09:48:44;27.03;;;9.73;;
21168;SDS011;10742;51.816;8.662;2022-12-04T09:52:13;23.90;;;8.70;;
21168;SDS011;10742;51.816;8.662;2022-12-04T09:59:19;26.87;;;9.73;;
21168;SDS011;10742;51.816;8.662;2022-12-04T10:02:54;25.20;;;9.67;;
21168;SDS011;10742;51.816;8.662;2022-12-04T10:06:26;29.10;;;10.47;;
21168;SDS011;10742;51.816;8.662;2022-12-04T10:17:16;25.50;;;9.43;;
21168;SDS011;10742;51.816;8.662;2022-12-04T10:21:02;25.83;;;9.17;;
21168;SDS011;10742;51.816;8.662;2022-12-04T10:24:50;25.43;;;9.43;;
21168;SDS011;10742;51.816;8.662;2022-12-04T10:28:28;26.07;;;9.63;;
21168;SDS011;10742;51.816;8.662;2022-12-04T10:31:54;27.20;;;9.67;;
21168;SDS011;10742;51.816;8.662;2022-12-04T10:35:23;25.60;;;9.00;;
21168;SDS011;10742;51.816;8.662;2022-12-04T10:42:35;25.97;;;10.03;;
21168;SDS011;10742;51.816;8.662;2022-12-04T10:46:02;27.00;;;10.30;;
21168;SDS011;10742;51.816;8.662;2022-12-04T10:49:26;26.00;;;10.03;;
21168;SDS011;10742;51.816;8.662;2022-12-04T10:52:51;28.10;;;10.27;;
21168;SDS011;10742;51.816;8.662;2022-12-04T10:56:14;25.40;;;9.77;;
21168;SDS011;10742;51.816;8.662;2022-12-04T10:59:54;26.77;;;10.00;;
21168;SDS011;10742;51.816;8.662;2022-12-04T11:03:26;25.80;;;9.00;;
21168;SDS011;10742;51.816;8.662;2022-12-04T11:06:48;25.63;;;10.10;;
21168;SDS011;10742;51.816;8.662;2022-12-04T11:10:23;24.07;;;9.47;;
21168;SDS011;10742;51.816;8.662;2022-12-04T11:14:13;24.53;;;8.63;;
21168;SDS011;10742;51.816;8.662;2022-12-04T11:17:39;26.17;;;9.30;;
21168;SDS011;10742;51.816;8.662;2022-12-04T11:21:06;26.77;;;9.37;;
21168;SDS011;10742;51.816;8.662;2022-12-04T11:24:35;27.37;;;9.23;;
21168;SDS011;10742;51.816;8.662;2022-12-04T11:27:58;24.10;;;9.10;;
21168;SDS011;10742;51.816;8.662;2022-12-04T11:31:21;25.70;;;9.47;;
21168;SDS011;10742;51.816;8.662;2022-12-04T11:34:44;25.63;;;9.10;;
21168;SDS011;10742;51.816;8.662;2022-12-04T11:38:06;27.27;;;10.30;;
21168;SDS011;10742;51.816;8.662;2022-12-04T11:41:34;27.80;;;10.07;;
21168;SDS011;10742;51.816;8.662;2022-12-04T11:45:03;26.30;;;10.23;;
21168;SDS011;10742;51.816;8.662;2022-12-04T11:48:42;24.40;;;8.40;;
21168;SDS011;10742;51.816;8.662;2022-12-04T11:52:26;26.53;;;9.83;;
21168;SDS011;10742;51.816;8.662;2022-12-04T11:56:22;28.20;;;9.83;;
21168;SDS011;10742;51.816;8.662;2022-12-04T12:03:37;25.67;;;9.80;;
21168;SDS011;10742;51.816;8.662;2022-12-04T12:10:55;27.70;;;10.47;;
21168;SDS011;10742;51.816;8.662;2022-12-04T12:17:58;30.97;;;11.80;;
21168;SDS011;10742;51.816;8.662;2022-12-04T12:21:27;34.03;;;12.57;;
21168;SDS011;10742;51.816;8.662;2022-12-04T12:25:05;33.53;;;13.63;;
21168;SDS011;10742;51.816;8.662;2022-12-04T12:39:37;32.20;;;13.20;;
21168;SDS011;10742;51.816;8.662;2022-12-04T12:43:00;35.47;;;14.07;;
21168;SDS011;10742;51.816;8.662;2022-12-04T12:46:33;37.37;;;13.80;;
21168;SDS011;10742;51.816;8.662;2022-12-04T12:50:28;34.97;;;13.73;;
21168;SDS011;10742;51.816;8.662;2022-12-04T12:54:03;32.47;;;12.53;;
21168;SDS011;10742;51.816;8.662;2022-12-04T12:57:35;29.50;;;11.70;;
21168;SDS011;10742;51.816;8.662;2022-12-04T13:04:36;32.70;;;12.43;;
21168;SDS011;10742;51.816;8.662;2022-12-04T13:08:05;32.13;;;13.60;;
21168;SDS011;10742;51.816;8.662;2022-12-04T13:11:29;31.53;;;11.67;;
21168;SDS011;10742;51.816;8.662;2022-12-04T13:14:53;30.33;;;11.57;;
21168;SDS011;10742;51.816;8.662;2022-12-04T13:18:20;34.70;;;13.30;;
21168;SDS011;10742;51.816;8.662;2022-12-04T13:25:33;33.03;;;12.77;;
21168;SDS011;10742;51.816;8.662;2022-12-04T13:29:01;30.83;;;12.30;;
21168;SDS011;10742;51.816;8.662;2022-12-04T13:36:56;31.60;;;13.13;;
21168;SDS011;10742;51.816;8.662;2022-12-04T13:40:28;38.27;;;14.90;;
21168;SDS011;10742;51.816;8.662;2022-12-04T13:43:53;34.20;;;12.50;;
21168;SDS011;10742;51.816;8.662;2022-12-04T13:47:23;32.53;;;12.80;;
21168;SDS011;10742;51.816;8.662;2022-12-04T13:50:59;31.87;;;13.10;;
21168;SDS011;10742;51.816;8.662;2022-12-04T13:54:28;33.73;;;13.57;;
21168;SDS011;10742;51.816;8.662;2022-12-04T13:58:00;35.37;;;14.17;;
21168;SDS011;10742;51.816;8.662;2022-12-04T14:01:23;35.40;;;13.80;;
21168;SDS011;10742;51.816;8.662;2022-12-04T14:04:51;35.30;;;14.57;;
21168;SDS011;10742;51.816;8.662;2022-12-04T14:11:44;39.73;;;14.87;;
21168;SDS011;10742;51.816;8.662;2022-12-04T14:15:18;37.20;;;15.40;;
21168;SDS011;10742;51.816;8.662;2022-12-04T14:18:45;38.87;;;14.70;;
21168;SDS011;10742;51.816;8.662;2022-12-04T14:22:26;36.03;;;14.73;;
21168;SDS011;10742;51.816;8.662;2022-12-04T14:25:52;36.37;;;14.53;;
21168;SDS011;10742;51.816;8.662;2022-12-04T14:33:20;37.00;;;14.10;;
21168;SDS011;10742;51.816;8.662;2022-12-04T14:36:43;34.10;;;13.10;;
21168;SDS011;10742;51.816;8.662;2022-12-04T14:40:14;33.47;;;13.30;;
21168;SDS011;10742;51.816;8.662;2022-12-04T14:43:43;38.00;;;15.27;;
21168;SDS011;10742;51.816;8.662;2022-12-04T14:47:13;34.00;;;13.53;;
21168;SDS011;10742;51.816;8.662;2022-12-04T14:51:16;32.37;;;12.27;;
21168;SDS011;10742;51.816;8.662;2022-12-04T14:54:55;36.87;;;13.60;;
21168;SDS011;10742;51.816;8.662;2022-12-04T14:58:27;34.23;;;13.63;;
21168;SDS011;10742;51.816;8.662;2022-12-04T15:01:54;33.87;;;13.53;;
21168;SDS011;10742;51.816;8.662;2022-12-04T15:05:27;32.87;;;13.17;;
21168;SDS011;10742;51.816;8.662;2022-12-04T15:08:50;35.57;;;14.63;;
21168;SDS011;10742;51.816;8.662;2022-12-04T15:12:44;33.83;;;13.70;;
21168;SDS011;10742;51.816;8.662;2022-12-04T15:16:16;35.57;;;14.10;;
21168;SDS011;10742;51.816;8.662;2022-12-04T15:19:40;34.43;;;13.97;;
21168;SDS011;10742;51.816;8.662;2022-12-04T15:23:03;38.33;;;14.80;;
21168;SDS011;10742;51.816;8.662;2022-12-04T15:26:24;39.23;;;14.30;;
21168;SDS011;10742;51.816;8.662;2022-12-04T15:29:46;37.27;;;14.03;;
21168;SDS011;10742;51.816;8.662;2022-12-04T15:33:13;33.43;;;13.50;;
21168;SDS011;10742;51.816;8.662;2022-12-04T15:36:46;35.80;;;14.77;;
21168;SDS011;10742;51.816;8.662;2022-12-04T15:40:35;33.17;;;13.13;;
21168;SDS011;10742;51.816;8.662;2022-12-04T15:43:57;37.90;;;14.20;;
21168;SDS011;10742;51.816;8.662;2022-12-04T15:47:21;37.53;;;14.33;;
21168;SDS011;10742;51.816;8.662;2022-12-04T15:50:44;36.80;;;14.70;;
21168;SDS011;10742;51.816;8.662;2022-12-04T15:54:27;32.90;;;13.80;;
21168;SDS011;10742;51.816;8.662;2022-12-04T15:57:53;35.07;;;14.30;;
21168;SDS011;10742;51.816;8.662;2022-12-04T16:01:39;34.77;;;14.23;;
21168;SDS011;10742;51.816;8.662;2022-12-04T16:08:42;34.60;;;13.50;;
21168;SDS011;10742;51.816;8.662;2022-12-04T16:12:15;40.87;;;15.20;;
21168;SDS011;10742;51.816;8.662;2022-12-04T16:15:41;34.97;;;14.47;;
21168;SDS011;10742;51.816;8.662;2022-12-04T16:19:05;35.47;;;14.93;;
21168;SDS011;10742;51.816;8.662;2022-12-04T16:22:37;37.50;;;14.63;;
21168;SDS011;10742;51.816;8.662;2022-12-04T16:26:01;34.23;;;13.87;;
21168;SDS011;10742;51.816;8.662;2022-12-04T16:29:24;37.43;;;14.23;;
21168;SDS011;10742;51.816;8.662;2022-12-04T16:32:45;40.97;;;15.77;;
21168;SDS011;10742;51.816;8.662;2022-12-04T16:36:11;37.30;;;15.33;;
21168;SDS011;10742;51.816;8.662;2022-12-04T16:39:32;36.17;;;13.80;;
21168;SDS011;10742;51.816;8.662;2022-12-04T16:42:57;44.87;;;16.67;;
21168;SDS011;10742;51.816;8.662;2022-12-04T16:46:19;40.23;;;15.93;;
21168;SDS011;10742;51.816;8.662;2022-12-04T16:49:44;37.63;;;15.67;;
21168;SDS011;10742;51.816;8.662;2022-12-04T16:53:12;42.10;;;16.13;;
21168;SDS011;10742;51.816;8.662;2022-12-04T16:56:39;36.83;;;14.57;;
21168;SDS011;10742;51.816;8.662;2022-12-04T17:00:01;44.53;;;15.50;;
21168;SDS011;10742;51.816;8.662;2022-12-04T17:03:25;37.70;;;14.63;;
21168;SDS011;10742;51.816;8.662;2022-12-04T17:06:48;37.27;;;14.87;;
21168;SDS011;10742;51.816;8.662;2022-12-04T17:10:09;35.73;;;13.67;;
21168;SDS011;10742;51.816;8.662;2022-12-04T17:13:32;34.57;;;13.27;;
21168;SDS011;10742;51.816;8.662;2022-12-04T17:16:54;37.87;;;14.07;;
21168;SDS011;10742;51.816;8.662;2022-12-04T17:20:18;36.93;;;16.10;;
21168;SDS011;10742;51.816;8.662;2022-12-04T17:23:42;33.10;;;13.00;;
21168;SDS011;10742;51.816;8.662;2022-12-04T17:27:04;33.37;;;13.23;;
21168;SDS011;10742;51.816;8.662;2022-12-04T17:30:26;33.93;;;13.77;;
21168;SDS011;10742;51.816;8.662;2022-12-04T17:33:51;35.43;;;13.30;;
21168;SDS011;10742;51.816;8.662;2022-12-04T17:37:13;32.37;;;13.37;;
21168;SDS011;10742;51.816;8.662;2022-12-04T17:40:36;35.20;;;13.43;;
21168;SDS011;10742;51.816;8.662;2022-12-04T17:43:58;32.60;;;12.50;;
21168;SDS011;10742;51.816;8.662;2022-12-04T17:47:20;34.57;;;12.77;;
21168;SDS011;10742;51.816;8.662;2022-12-04T17:50:42;33.43;;;12.00;;
21168;SDS011;10742;51.816;8.662;2022-12-04T17:54:04;35.37;;;13.10;;
21168;SDS011;10742;51.816;8.662;2022-12-04T17:57:26;30.43;;;11.20;;
21168;SDS011;10742;51.816;8.662;2022-12-04T18:00:48;33.60;;;12.27;;
21168;SDS011;10742;51.816;8.662;2022-12-04T18:04:10;30.97;;;11.83;;
21168;SDS011;10742;51.816;8.662;2022-12-04T18:07:31;29.20;;;11.47;;
21168;SDS011;10742;51.816;8.662;2022-12-04T18:10:52;31.63;;;11.63;;
21168;SDS011;10742;51.816;8.662;2022-12-04T18:14:15;29.70;;;11.47;;
21168;SDS011;10742;51.816;8.662;2022-12-04T18:17:38;28.13;;;11.03;;
21168;SDS011;10742;51.816;8.662;2022-12-04T18:21:05;30.33;;;11.70;;
21168;SDS011;10742;51.816;8.662;2022-12-04T18:24:29;30.80;;;11.87;;
21168;SDS011;10742;51.816;8.662;2022-12-04T18:27:51;27.13;;;10.73;;
21168;SDS011;10742;51.816;8.662;2022-12-04T18:31:14;27.73;;;10.47;;
21168;SDS011;10742;51.816;8.662;2022-12-04T18:34:38;28.90;;;10.77;;
21168;SDS011;10742;51.816;8.662;2022-12-04T18:37:59;26.73;;;11.00;;
21168;SDS011;10742;51.816;8.662;2022-12-04T18:41:21;30.33;;;11.50;;
21168;SDS011;10742;51.816;8.662;2022-12-04T18:44:43;27.93;;;11.03;;
21168;SDS011;10742;51.816;8.662;2022-12-04T18:48:05;30.13;;;11.77;;
21168;SDS011;10742;51.816;8.662;2022-12-04T18:51:30;31.33;;;11.90;;
21168;SDS011;10742;51.816;8.662;2022-12-04T18:54:54;33.43;;;14.00;;
21168;SDS011;10742;51.816;8.662;2022-12-04T18:58:15;31.83;;;12.90;;
21168;SDS011;10742;51.816;8.662;2022-12-04T19:01:38;32.37;;;13.00;;
21168;SDS011;10742;51.816;8.662;2022-12-04T19:05:01;32.87;;;12.27;;
21168;SDS011;10742;51.816;8.662;2022-12-04T19:08:22;29.90;;;11.23;;
21168;SDS011;10742;51.816;8.662;2022-12-04T19:11:47;31.60;;;12.30;;
21168;SDS011;10742;51.816;8.662;2022-12-04T19:15:10;28.47;;;11.73;;
21168;SDS011;10742;51.816;8.662;2022-12-04T19:18:31;32.53;;;12.93;;
21168;SDS011;10742;51.816;8.662;2022-12-04T19:21:53;30.53;;;12.27;;
21168;SDS011;10742;51.816;8.662;2022-12-04T19:25:15;31.67;;;12.33;;
21168;SDS011;10742;51.816;8.662;2022-12-04T19:28:37;28.23;;;11.33;;
21168;SDS011;10742;51.816;8.662;2022-12-04T19:31:59;32.50;;;13.30;;
21168;SDS011;10742;51.816;8.662;2022-12-04T19:35:20;32.27;;;12.40;;
21168;SDS011;10742;51.816;8.662;2022-12-04T19:38:41;30.43;;;12.63;;
21168;SDS011;10742;51.816;8.662;2022-12-04T19:42:04;29.13;;;11.83;;
21168;SDS011;10742;51.816;8.662;2022-12-04T19:45:27;28.97;;;11.90;;
21168;SDS011;10742;51.816;8.662;2022-12-04T19:48:49;27.27;;;10.77;;
21168;SDS011;10742;51.816;8.662;2022-12-04T19:52:12;29.30;;;11.83;;
21168;SDS011;10742;51.816;8.662;2022-12-04T19:55:35;31.00;;;11.63;;
21168;SDS011;10742;51.816;8.662;2022-12-04T19:58:57;28.50;;;10.70;;
21168;SDS011;10742;51.816;8.662;2022-12-04T20:02:20;28.53;;;10.97;;
21168;SDS011;10742;51.816;8.662;2022-12-04T20:05:42;27.90;;;11.27;;
21168;SDS011;10742;51.816;8.662;2022-12-04T20:09:05;31.17;;;12.23;;
21168;SDS011;10742;51.816;8.662;2022-12-04T20:12:29;30.20;;;12.07;;
21168;SDS011;10742;51.816;8.662;2022-12-04T20:15:50;31.60;;;11.83;;
21168;SDS011;10742;51.816;8.662;2022-12-04T20:19:12;25.43;;;10.43;;
21168;SDS011;10742;51.816;8.662;2022-12-04T20:22:37;29.93;;;11.50;;
21168;SDS011;10742;51.816;8.662;2022-12-04T20:26:01;29.23;;;11.90;;
21168;SDS011;10742;51.816;8.662;2022-12-04T20:29:24;28.57;;;11.60;;
21168;SDS011;10742;51.816;8.662;2022-12-04T20:32:47;28.23;;;11.53;;
21168;SDS011;10742;51.816;8.662;2022-12-04T20:36:09;28.93;;;10.90;;
21168;SDS011;10742;51.816;8.662;2022-12-04T20:39:31;28.10;;;11.60;;
21168;SDS011;10742;51.816;8.662;2022-12-04T20:42:53;28.77;;;11.20;;
21168;SDS011;10742;51.816;8.662;2022-12-04T20:46:15;33.83;;;12.53;;
21168;SDS011;10742;51.816;8.662;2022-12-04T20:49:37;32.03;;;12.70;;
21168;SDS011;10742;51.816;8.662;2022-12-04T20:52:59;30.30;;;11.87;;
21168;SDS011;10742;51.816;8.662;2022-12-04T20:56:21;28.03;;;11.33;;
21168;SDS011;10742;51.816;8.662;2022-12-04T20:59:43;28.73;;;11.43;;
21168;SDS011;10742;51.816;8.662;2022-12-04T21:03:06;27.63;;;10.83;;
21168;SDS011;10742;51.816;8.662;2022-12-04T21:06:33;30.50;;;12.53;;
21168;SDS011;10742;51.816;8.662;2022-12-04T21:09:58;30.90;;;11.73;;
21168;SDS011;10742;51.816;8.662;2022-12-04T21:13:20;29.13;;;11.77;;
21168;SDS011;10742;51.816;8.662;2022-12-04T21:17:03;28.70;;;11.63;;
21168;SDS011;10742;51.816;8.662;2022-12-04T21:20:27;32.53;;;12.87;;
21168;SDS011;10742;51.816;8.662;2022-12-04T21:23:50;30.73;;;12.97;;
21168;SDS011;10742;51.816;8.662;2022-12-04T21:27:13;30.53;;;11.53;;
21168;SDS011;10742;51.816;8.662;2022-12-04T21:30:39;31.97;;;11.83;;
21168;SDS011;10742;51.816;8.662;2022-12-04T21:34:02;31.10;;;12.20;;
21168;SDS011;10742;51.816;8.662;2022-12-04T21:37:26;31.10;;;11.77;;
21168;SDS011;10742;51.816;8.662;2022-12-04T21:40:48;33.97;;;12.27;;